sensor_id;sensor_type;location;lat;lon;timestamp;pressure;altitude;pressure_sealevel;temperature;humidity
36192;BME280;22233;42.708;23.360;2023-12-20T00:02:11;95775.91;;;3.05;66.64
36192;BME280;22233;42.708;23.360;2023-12-20T00:04:36;95779.97;;;2.80;67.86
36192;BME280;22233;42.708;23.360;2023-12-20T00:07:01;95781.41;;;2.61;68.21
36192;BME280;22233;42.708;23.360;2023-12-20T00:09:28;95778.47;;;2.63;67.02
36192;BME280;22233;42.708;23.360;2023-12-20T00:11:53;95774.56;;;2.48;66.91
36192;BME280;22233;42.708;23.360;2023-12-20T00:14:19;95761.41;;;2.19;67.63
36192;BME280;22233;42.708;23.360;2023-12-20T00:16:44;95774.69;;;1.87;68.26
36192;BME280;22233;42.708;23.360;2023-12-20T00:19:09;95765.63;;;1.32;68.60
36192;BME280;22233;42.708;23.360;2023-12-20T00:21:35;95765.97;;;1.36;69.51
36192;BME280;22233;42.708;23.360;2023-12-20T00:24:00;95757.59;;;1.49;69.08
36192;BME280;22233;42.708;23.360;2023-12-20T00:26:25;95749.66;;;1.37;69.19
36192;BME280;22233;42.708;23.360;2023-12-20T00:28:51;95740.66;;;1.27;70.39
36192;BME280;22233;42.708;23.360;2023-12-20T00:31:16;95753.69;;;1.01;69.75
36192;BME280;22233;42.708;23.360;2023-12-20T00:33:42;95745.63;;;0.84;70.54
36192;BME280;22233;42.708;23.360;2023-12-20T00:36:09;95743.84;;;0.90;71.69
36192;BME280;22233;42.708;23.360;2023-12-20T00:38:34;95743.03;;;0.72;72.06
36192;BME280;22233;42.708;23.360;2023-12-20T00:41:00;95741.81;;;0.63;72.41
36192;BME280;22233;42.708;23.360;2023-12-20T00:43:25;95728.69;;;0.45;73.88
36192;BME280;22233;42.708;23.360;2023-12-20T00:45:51;95714.84;;;0.65;73.30
36192;BME280;22233;42.708;23.360;2023-12-20T00:48:16;95736.16;;;0.76;73.17
36192;BME280;22233;42.708;23.360;2023-12-20T00:50:42;95721.97;;;0.76;73.02
36192;BME280;22233;42.708;23.360;2023-12-20T00:53:07;95721.72;;;0.94;72.75
36192;BME280;22233;42.708;23.360;2023-12-20T00:55:32;95691.50;;;0.77;71.81
36192;BME280;22233;42.708;23.360;2023-12-20T00:57:58;95715.81;;;0.75;72.67
36192;BME280;22233;42.708;23.360;2023-12-20T01:00:24;95705.19;;;0.64;72.43
36192;BME280;22233;42.708;23.360;2023-12-20T01:02:50;95714.50;;;0.78;72.70
36192;BME280;22233;42.708;23.360;2023-12-20T01:05:17;95718.66;;;0.86;72.09
36192;BME280;22233;42.708;23.360;2023-12-20T01:07:42;95722.06;;;0.81;72.42
36192;BME280;22233;42.708;23.360;2023-12-20T01:10:08;95713.47;;;0.79;73.24
36192;BME280;22233;42.708;23.360;2023-12-20T01:12:35;95694.59;;;0.86;72.19
36192;BME280;22233;42.708;23.360;2023-12-20T01:15:00;95694.66;;;0.91;71.72
36192;BME280;22233;42.708;23.360;2023-12-20T01:17:26;95700.78;;;1.08;72.06
36192;BME280;22233;42.708;23.360;2023-12-20T01:19:51;95701.78;;;1.02;72.02
36192;BME280;22233;42.708;23.360;2023-12-20T01:22:17;95699.53;;;0.60;72.58
36192;BME280;22233;42.708;23.360;2023-12-20T01:24:42;95681.75;;;0.20;75.56
36192;BME280;22233;42.708;23.360;2023-12-20T01:27:07;95692.72;;;0.52;74.06
36192;BME280;22233;42.708;23.360;2023-12-20T01:29:33;95685.69;;;0.63;73.45
36192;BME280;22233;42.708;23.360;2023-12-20T01:31:58;95671.50;;;0.63;73.93
36192;BME280;22233;42.708;23.360;2023-12-20T01:34:23;95658.84;;;0.58;73.78
36192;BME280;22233;42.708;23.360;2023-12-20T01:36:49;95672.97;;;0.53;73.71
36192;BME280;22233;42.708;23.360;2023-12-20T01:39:14;95662.44;;;0.47;73.20
36192;BME280;22233;42.708;23.360;2023-12-20T01:41:40;95655.91;;;0.76;72.68
36192;BME280;22233;42.708;23.360;2023-12-20T01:44:05;95653.41;;;0.87;72.05
36192;BME280;22233;42.708;23.360;2023-12-20T01:46:30;95651.03;;;0.90;71.03
36192;BME280;22233;42.708;23.360;2023-12-20T01:48:56;95649.13;;;0.52;72.30
36192;BME280;22233;42.708;23.360;2023-12-20T01:51:22;95643.13;;;0.62;71.98
36192;BME280;22233;42.708;23.360;2023-12-20T01:53:48;95637.63;;;0.51;72.54
36192;BME280;22233;42.708;23.360;2023-12-20T01:56:14;95639.00;;;0.54;73.31
36192;BME280;22233;42.708;23.360;2023-12-20T01:58:43;95642.31;;;0.44;73.89
36192;BME280;22233;42.708;23.360;2023-12-20T02:01:10;95632.59;;;0.38;73.50
36192;BME280;22233;42.708;23.360;2023-12-20T02:03:35;95646.19;;;0.70;72.66
36192;BME280;22233;42.708;23.360;2023-12-20T02:06:03;95643.94;;;0.11;74.43
36192;BME280;22233;42.708;23.360;2023-12-20T02:08:28;95640.78;;;0.31;73.69
36192;BME280;22233;42.708;23.360;2023-12-20T02:10:54;95627.09;;;0.28;74.31
36192;BME280;22233;42.708;23.360;2023-12-20T02:13:20;95614.72;;;0.38;73.62
36192;BME280;22233;42.708;23.360;2023-12-20T02:15:46;95624.09;;;0.07;75.02
36192;BME280;22233;42.708;23.360;2023-12-20T02:18:12;95634.72;;;0.19;74.54
36192;BME280;22233;42.708;23.360;2023-12-20T02:20:40;95628.25;;;0.32;74.43
36192;BME280;22233;42.708;23.360;2023-12-20T02:23:06;95607.25;;;-0.39;76.34
36192;BME280;22233;42.708;23.360;2023-12-20T02:25:31;95627.56;;;0.08;75.44
36192;BME280;22233;42.708;23.360;2023-12-20T02:27:57;95613.09;;;-0.42;76.86
36192;BME280;22233;42.708;23.360;2023-12-20T02:30:23;95611.41;;;-0.31;76.63
36192;BME280;22233;42.708;23.360;2023-12-20T02:32:49;95605.84;;;-0.13;75.83
36192;BME280;22233;42.708;23.360;2023-12-20T02:35:15;95596.75;;;0.00;75.79
36192;BME280;22233;42.708;23.360;2023-12-20T02:37:40;95611.13;;;-0.18;75.10
36192;BME280;22233;42.708;23.360;2023-12-20T02:40:06;95610.69;;;-0.27;75.99
36192;BME280;22233;42.708;23.360;2023-12-20T02:42:32;95598.34;;;-0.45;77.24
36192;BME280;22233;42.708;23.360;2023-12-20T02:44:57;95599.88;;;-0.20;77.08
36192;BME280;22233;42.708;23.360;2023-12-20T02:47:22;95586.88;;;-0.28;76.82
36192;BME280;22233;42.708;23.360;2023-12-20T02:49:48;95584.00;;;-0.27;77.40
36192;BME280;22233;42.708;23.360;2023-12-20T02:52:14;95590.34;;;-0.45;77.49
36192;BME280;22233;42.708;23.360;2023-12-20T02:54:39;95598.34;;;-0.45;77.90
36192;BME280;22233;42.708;23.360;2023-12-20T02:57:05;95580.56;;;-0.39;77.24
36192;BME280;22233;42.708;23.360;2023-12-20T02:59:31;95606.31;;;-0.62;79.54
36192;BME280;22233;42.708;23.360;2023-12-20T03:01:57;95600.63;;;-0.65;79.17
36192;BME280;22233;42.708;23.360;2023-12-20T03:04:22;95588.72;;;-0.46;79.11
36192;BME280;22233;42.708;23.360;2023-12-20T03:06:47;95605.13;;;-0.25;77.33
36192;BME280;22233;42.708;23.360;2023-12-20T03:09:13;95596.22;;;-0.59;80.07
36192;BME280;22233;42.708;23.360;2023-12-20T03:11:38;95581.97;;;-0.65;79.32
36192;BME280;22233;42.708;23.360;2023-12-20T03:14:04;95582.78;;;-0.36;78.97
36192;BME280;22233;42.708;23.360;2023-12-20T03:16:29;95581.66;;;-0.23;78.14
36192;BME280;22233;42.708;23.360;2023-12-20T03:18:56;95596.16;;;-0.02;77.90
36192;BME280;22233;42.708;23.360;2023-12-20T03:21:21;95589.25;;;-0.32;79.07
36192;BME280;22233;42.708;23.360;2023-12-20T03:23:47;95555.00;;;-0.52;79.31
36192;BME280;22233;42.708;23.360;2023-12-20T03:26:13;95581.34;;;-0.55;79.26
36192;BME280;22233;42.708;23.360;2023-12-20T03:28:39;95574.47;;;-0.51;78.86
36192;BME280;22233;42.708;23.360;2023-12-20T03:31:04;95557.75;;;-0.47;79.47
36192;BME280;22233;42.708;23.360;2023-12-20T03:33:30;95571.19;;;-0.42;78.38
36192;BME280;22233;42.708;23.360;2023-12-20T03:35:55;95583.66;;;-0.30;78.83
36192;BME280;22233;42.708;23.360;2023-12-20T03:38:21;95573.53;;;-0.45;78.59
36192;BME280;22233;42.708;23.360;2023-12-20T03:40:49;95568.41;;;-0.47;78.69
36192;BME280;22233;42.708;23.360;2023-12-20T03:43:14;95580.22;;;-0.43;79.37
36192;BME280;22233;42.708;23.360;2023-12-20T03:45:40;95574.66;;;-0.41;79.86
36192;BME280;22233;42.708;23.360;2023-12-20T03:48:05;95564.34;;;-0.21;78.70
36192;BME280;22233;42.708;23.360;2023-12-20T03:50:31;95568.75;;;0.03;78.54
36192;BME280;22233;42.708;23.360;2023-12-20T03:52:56;95572.69;;;0.17;77.38
36192;BME280;22233;42.708;23.360;2023-12-20T03:55:21;95576.69;;;-0.48;79.60
36192;BME280;22233;42.708;23.360;2023-12-20T03:57:47;95572.13;;;-0.02;79.38
36192;BME280;22233;42.708;23.360;2023-12-20T04:00:12;95556.97;;;-0.30;79.01
36192;BME280;22233;42.708;23.360;2023-12-20T04:02:39;95565.06;;;-0.08;78.43
36192;BME280;22233;42.708;23.360;2023-12-20T04:05:05;95559.75;;;0.26;77.72
36192;BME280;22233;42.708;23.360;2023-12-20T04:07:31;95557.72;;;0.33;76.78
36192;BME280;22233;42.708;23.360;2023-12-20T04:09:56;95562.00;;;0.34;76.32
36192;BME280;22233;42.708;23.360;2023-12-20T04:12:22;95546.53;;;0.36;76.32
36192;BME280;22233;42.708;23.360;2023-12-20T04:14:47;95550.53;;;0.16;76.99
36192;BME280;22233;42.708;23.360;2023-12-20T04:17:13;95534.31;;;0.23;76.59
36192;BME280;22233;42.708;23.360;2023-12-20T04:19:40;95550.34;;;0.23;77.38
36192;BME280;22233;42.708;23.360;2023-12-20T04:22:06;95532.59;;;0.34;76.26
36192;BME280;22233;42.708;23.360;2023-12-20T04:24:31;95533.84;;;-0.08;77.88
36192;BME280;22233;42.708;23.360;2023-12-20T04:26:57;95531.03;;;-0.18;78.23
36192;BME280;22233;42.708;23.360;2023-12-20T04:29:22;95546.16;;;-0.07;78.19
36192;BME280;22233;42.708;23.360;2023-12-20T04:31:47;95523.25;;;-0.19;78.62
36192;BME280;22233;42.708;23.360;2023-12-20T04:34:13;95532.06;;;-0.02;77.64
36192;BME280;22233;42.708;23.360;2023-12-20T04:36:38;95520.41;;;-0.13;77.72
36192;BME280;22233;42.708;23.360;2023-12-20T04:39:03;95521.78;;;-0.10;78.25
36192;BME280;22233;42.708;23.360;2023-12-20T04:41:29;95538.78;;;0.17;78.75
36192;BME280;22233;42.708;23.360;2023-12-20T04:43:54;95506.09;;;-0.07;78.65
36192;BME280;22233;42.708;23.360;2023-12-20T04:46:19;95526.63;;;0.10;78.10
36192;BME280;22233;42.708;23.360;2023-12-20T04:48:45;95523.91;;;0.05;77.37
36192;BME280;22233;42.708;23.360;2023-12-20T04:51:10;95527.69;;;0.09;78.07
36192;BME280;22233;42.708;23.360;2023-12-20T04:53:36;95521.53;;;-0.09;78.61
36192;BME280;22233;42.708;23.360;2023-12-20T04:56:01;95510.97;;;-0.04;78.27
36192;BME280;22233;42.708;23.360;2023-12-20T04:58:26;95516.13;;;0.03;77.49
36192;BME280;22233;42.708;23.360;2023-12-20T05:00:52;95520.44;;;0.04;78.13
36192;BME280;22233;42.708;23.360;2023-12-20T05:03:17;95525.34;;;-0.05;77.64
36192;BME280;22233;42.708;23.360;2023-12-20T05:05:42;95522.44;;;-0.03;77.83
36192;BME280;22233;42.708;23.360;2023-12-20T05:08:08;95518.88;;;-0.09;77.41
36192;BME280;22233;42.708;23.360;2023-12-20T05:10:33;95518.63;;;-0.07;76.98
36192;BME280;22233;42.708;23.360;2023-12-20T05:12:59;95512.81;;;-0.21;76.77
36192;BME280;22233;42.708;23.360;2023-12-20T05:15:24;95498.06;;;-0.41;77.41
36192;BME280;22233;42.708;23.360;2023-12-20T05:17:50;95510.88;;;-1.00;79.28
36192;BME280;22233;42.708;23.360;2023-12-20T05:20:15;95514.53;;;-0.89;80.46
36192;BME280;22233;42.708;23.360;2023-12-20T05:22:41;95506.69;;;-0.67;79.72
36192;BME280;22233;42.708;23.360;2023-12-20T05:25:06;95495.94;;;-0.72;78.58
36192;BME280;22233;42.708;23.360;2023-12-20T05:27:32;95493.63;;;-0.81;78.54
36192;BME280;22233;42.708;23.360;2023-12-20T05:29:58;95497.56;;;-1.00;79.20
36192;BME280;22233;42.708;23.360;2023-12-20T05:32:23;95493.72;;;-0.75;80.44
36192;BME280;22233;42.708;23.360;2023-12-20T05:34:49;95502.53;;;-0.46;78.88
36192;BME280;22233;42.708;23.360;2023-12-20T05:37:14;95486.41;;;-0.51;78.80
36192;BME280;22233;42.708;23.360;2023-12-20T05:39:40;95488.72;;;-0.26;77.46
36192;BME280;22233;42.708;23.360;2023-12-20T05:42:05;95473.25;;;-0.41;77.33
36192;BME280;22233;42.708;23.360;2023-12-20T05:44:30;95491.22;;;-0.19;77.72
36192;BME280;22233;42.708;23.360;2023-12-20T05:46:56;95481.75;;;-0.27;77.83
36192;BME280;22233;42.708;23.360;2023-12-20T05:49:21;95479.22;;;-0.17;77.34
36192;BME280;22233;42.708;23.360;2023-12-20T05:51:47;95477.19;;;-0.27;78.08
36192;BME280;22233;42.708;23.360;2023-12-20T05:54:12;95485.22;;;-0.44;77.12
36192;BME280;22233;42.708;23.360;2023-12-20T05:56:38;95469.09;;;-0.49;77.16
36192;BME280;22233;42.708;23.360;2023-12-20T05:59:03;95463.53;;;-0.47;78.02
36192;BME280;22233;42.708;23.360;2023-12-20T06:01:29;95474.94;;;-0.35;78.51
36192;BME280;22233;42.708;23.360;2023-12-20T06:03:54;95471.22;;;-0.17;78.42
36192;BME280;22233;42.708;23.360;2023-12-20T06:06:19;95463.84;;;-0.27;77.50
36192;BME280;22233;42.708;23.360;2023-12-20T06:08:45;95444.47;;;-0.22;78.02
36192;BME280;22233;42.708;23.360;2023-12-20T06:11:10;95444.38;;;0.12;77.39
36192;BME280;22233;42.708;23.360;2023-12-20T06:13:36;95465.78;;;-0.05;78.74
36192;BME280;22233;42.708;23.360;2023-12-20T06:16:02;95475.75;;;-0.17;77.60
36192;BME280;22233;42.708;23.360;2023-12-20T06:18:28;95441.53;;;-0.04;77.76
36192;BME280;22233;42.708;23.360;2023-12-20T06:20:54;95473.91;;;0.22;77.41
36192;BME280;22233;42.708;23.360;2023-12-20T06:23:20;95473.31;;;-0.19;77.71
36192;BME280;22233;42.708;23.360;2023-12-20T06:25:45;95463.94;;;-0.38;78.64
36192;BME280;22233;42.708;23.360;2023-12-20T06:28:10;95467.44;;;-0.38;78.31
36192;BME280;22233;42.708;23.360;2023-12-20T06:30:39;95460.22;;;-0.37;78.20
36192;BME280;22233;42.708;23.360;2023-12-20T06:33:04;95465.06;;;-0.17;77.89
36192;BME280;22233;42.708;23.360;2023-12-20T06:35:31;95470.81;;;-0.09;78.72
36192;BME280;22233;42.708;23.360;2023-12-20T06:37:57;95466.84;;;-0.23;79.20
36192;BME280;22233;42.708;23.360;2023-12-20T06:40:22;95471.88;;;-0.10;79.38
36192;BME280;22233;42.708;23.360;2023-12-20T06:42:47;95469.94;;;-0.31;78.62
36192;BME280;22233;42.708;23.360;2023-12-20T06:45:13;95466.84;;;-0.06;78.33
36192;BME280;22233;42.708;23.360;2023-12-20T06:47:38;95454.22;;;-0.45;79.04
36192;BME280;22233;42.708;23.360;2023-12-20T06:50:05;95469.69;;;-0.30;80.11
36192;BME280;22233;42.708;23.360;2023-12-20T06:52:30;95452.38;;;-0.27;79.03
36192;BME280;22233;42.708;23.360;2023-12-20T06:54:55;95451.13;;;-0.03;78.61
36192;BME280;22233;42.708;23.360;2023-12-20T06:57:21;95447.19;;;0.22;77.47
36192;BME280;22233;42.708;23.360;2023-12-20T06:59:46;95449.59;;;0.41;77.46
36192;BME280;22233;42.708;23.360;2023-12-20T07:02:12;95449.06;;;0.61;77.21
36192;BME280;22233;42.708;23.360;2023-12-20T07:04:40;95433.41;;;0.52;76.35
36192;BME280;22233;42.708;23.360;2023-12-20T07:07:06;95447.91;;;0.34;77.42
36192;BME280;22233;42.708;23.360;2023-12-20T07:09:32;95424.13;;;0.55;76.97
36192;BME280;22233;42.708;23.360;2023-12-20T07:11:57;95436.34;;;0.73;76.17
36192;BME280;22233;42.708;23.360;2023-12-20T07:14:23;95432.94;;;0.77;75.77
36192;BME280;22233;42.708;23.360;2023-12-20T07:16:49;95428.75;;;0.87;75.64
36192;BME280;22233;42.708;23.360;2023-12-20T07:19:14;95421.13;;;0.73;75.25
36192;BME280;22233;42.708;23.360;2023-12-20T07:21:39;95423.78;;;0.73;75.31
36192;BME280;22233;42.708;23.360;2023-12-20T07:24:05;95413.47;;;0.60;77.15
36192;BME280;22233;42.708;23.360;2023-12-20T07:26:30;95433.97;;;0.76;75.69
36192;BME280;22233;42.708;23.360;2023-12-20T07:28:56;95415.09;;;0.61;76.37
36192;BME280;22233;42.708;23.360;2023-12-20T07:31:21;95409.00;;;0.44;77.26
36192;BME280;22233;42.708;23.360;2023-12-20T07:33:46;95426.47;;;0.51;78.40
36192;BME280;22233;42.708;23.360;2023-12-20T07:36:12;95409.63;;;0.51;77.29
36192;BME280;22233;42.708;23.360;2023-12-20T07:38:38;95414.84;;;0.63;78.09
36192;BME280;22233;42.708;23.360;2023-12-20T07:41:03;95411.03;;;-0.25;80.66
36192;BME280;22233;42.708;23.360;2023-12-20T07:43:29;95412.53;;;0.27;79.66
36192;BME280;22233;42.708;23.360;2023-12-20T07:45:54;95406.56;;;0.20;78.88
36192;BME280;22233;42.708;23.360;2023-12-20T07:48:19;95417.53;;;0.02;79.88
36192;BME280;22233;42.708;23.360;2023-12-20T07:50:45;95427.78;;;0.27;80.49
36192;BME280;22233;42.708;23.360;2023-12-20T07:53:10;95423.06;;;1.05;84.05
36192;BME280;22233;42.708;23.360;2023-12-20T07:55:35;95398.16;;;2.07;76.75
36192;BME280;22233;42.708;23.360;2023-12-20T07:58:01;95400.53;;;2.61;76.79
36192;BME280;22233;42.708;23.360;2023-12-20T08:00:27;95405.81;;;3.39;80.92
36192;BME280;22233;42.708;23.360;2023-12-20T08:02:53;95422.72;;;3.14;75.11
36192;BME280;22233;42.708;23.360;2023-12-20T08:05:18;95413.63;;;2.42;72.83
36192;BME280;22233;42.708;23.360;2023-12-20T08:07:43;95418.81;;;2.11;73.63
36192;BME280;22233;42.708;23.360;2023-12-20T08:10:09;95409.03;;;1.90;74.54
36192;BME280;22233;42.708;23.360;2023-12-20T08:12:34;95402.97;;;2.05;74.01
36192;BME280;22233;42.708;23.360;2023-12-20T08:15:00;95399.72;;;2.03;74.07
36192;BME280;22233;42.708;23.360;2023-12-20T08:17:26;95393.34;;;1.66;73.65
36192;BME280;22233;42.708;23.360;2023-12-20T08:19:51;95400.25;;;1.99;74.19
36192;BME280;22233;42.708;23.360;2023-12-20T08:22:17;95396.75;;;1.94;74.32
36192;BME280;22233;42.708;23.360;2023-12-20T08:24:42;95389.41;;;2.27;73.05
36192;BME280;22233;42.708;23.360;2023-12-20T08:27:07;95403.09;;;2.30;73.45
36192;BME280;22233;42.708;23.360;2023-12-20T08:29:34;95388.66;;;1.89;74.70
36192;BME280;22233;42.708;23.360;2023-12-20T08:32:00;95391.25;;;1.73;75.22
36192;BME280;22233;42.708;23.360;2023-12-20T08:34:25;95380.81;;;1.77;74.57
36192;BME280;22233;42.708;23.360;2023-12-20T08:36:51;95363.44;;;1.85;74.57
36192;BME280;22233;42.708;23.360;2023-12-20T08:39:17;95369.75;;;2.11;74.36
36192;BME280;22233;42.708;23.360;2023-12-20T08:41:42;95379.22;;;2.24;74.30
36192;BME280;22233;42.708;23.360;2023-12-20T08:44:08;95372.63;;;1.99;74.21
36192;BME280;22233;42.708;23.360;2023-12-20T08:46:34;95377.16;;;1.88;74.78
36192;BME280;22233;42.708;23.360;2023-12-20T08:48:59;95367.47;;;1.82;74.86
36192;BME280;22233;42.708;23.360;2023-12-20T08:51:25;95351.75;;;1.96;75.04
36192;BME280;22233;42.708;23.360;2023-12-20T08:53:51;95343.72;;;2.01;73.83
36192;BME280;22233;42.708;23.360;2023-12-20T08:56:16;95361.31;;;1.44;76.35
36192;BME280;22233;42.708;23.360;2023-12-20T08:58:43;95357.16;;;1.26;75.65
36192;BME280;22233;42.708;23.360;2023-12-20T09:01:08;95351.16;;;1.46;75.27
36192;BME280;22233;42.708;23.360;2023-12-20T09:03:34;95334.28;;;1.46;76.30
36192;BME280;22233;42.708;23.360;2023-12-20T09:06:00;95341.66;;;1.66;76.63
36192;BME280;22233;42.708;23.360;2023-12-20T09:08:25;95326.31;;;1.56;75.39
36192;BME280;22233;42.708;23.360;2023-12-20T09:10:51;95305.69;;;1.51;76.16
36192;BME280;22233;42.708;23.360;2023-12-20T09:13:16;95317.16;;;1.09;78.28
36192;BME280;22233;42.708;23.360;2023-12-20T09:15:41;95303.81;;;1.52;77.02
36192;BME280;22233;42.708;23.360;2023-12-20T09:18:07;95292.16;;;1.73;76.02
36192;BME280;22233;42.708;23.360;2023-12-20T09:20:33;95289.19;;;1.75;76.36
36192;BME280;22233;42.708;23.360;2023-12-20T09:22:59;95272.66;;;1.88;75.48
36192;BME280;22233;42.708;23.360;2023-12-20T09:25:24;95281.03;;;2.07;74.81
36192;BME280;22233;42.708;23.360;2023-12-20T09:27:51;95275.72;;;2.12;75.91
36192;BME280;22233;42.708;23.360;2023-12-20T09:30:17;95273.88;;;2.23;75.90
36192;BME280;22233;42.708;23.360;2023-12-20T09:32:43;95254.81;;;2.14;76.29
36192;BME280;22233;42.708;23.360;2023-12-20T09:35:08;95258.88;;;2.27;75.98
36192;BME280;22233;42.708;23.360;2023-12-20T09:37:34;95254.56;;;2.21;75.45
36192;BME280;22233;42.708;23.360;2023-12-20T09:39:59;95254.78;;;2.04;76.93
36192;BME280;22233;42.708;23.360;2023-12-20T09:42:34;95250.00;;;2.16;76.28
36192;BME280;22233;42.708;23.360;2023-12-20T09:45:03;95232.56;;;2.09;76.70
36192;BME280;22233;42.708;23.360;2023-12-20T09:47:33;95234.19;;;2.15;77.00
36192;BME280;22233;42.708;23.360;2023-12-20T09:49:59;95223.50;;;2.20;76.86
36192;BME280;22233;42.708;23.360;2023-12-20T09:52:24;95216.50;;;2.19;76.66
36192;BME280;22233;42.708;23.360;2023-12-20T09:54:52;95223.25;;;2.47;77.59
36192;BME280;22233;42.708;23.360;2023-12-20T09:57:18;95222.75;;;2.60;76.55
36192;BME280;22233;42.708;23.360;2023-12-20T09:59:43;95212.53;;;2.57;75.97
36192;BME280;22233;42.708;23.360;2023-12-20T10:02:13;95222.22;;;2.74;76.10
36192;BME280;22233;42.708;23.360;2023-12-20T10:04:46;95203.16;;;2.86;75.77
36192;BME280;22233;42.708;23.360;2023-12-20T10:07:15;95211.75;;;2.67;75.46
36192;BME280;22233;42.708;23.360;2023-12-20T10:09:41;95193.50;;;2.69;75.97
36192;BME280;22233;42.708;23.360;2023-12-20T10:12:07;95206.13;;;2.84;75.18
36192;BME280;22233;42.708;23.360;2023-12-20T10:14:32;95196.19;;;2.95;75.63
36192;BME280;22233;42.708;23.360;2023-12-20T10:17:04;95170.72;;;2.82;75.93
36192;BME280;22233;42.708;23.360;2023-12-20T10:19:31;95176.34;;;2.96;76.34
36192;BME280;22233;42.708;23.360;2023-12-20T10:21:59;95152.19;;;2.29;76.90
36192;BME280;22233;42.708;23.360;2023-12-20T10:24:25;95164.00;;;2.33;77.63
36192;BME280;22233;42.708;23.360;2023-12-20T10:27:10;95177.69;;;2.83;76.59
36192;BME280;22233;42.708;23.360;2023-12-20T10:29:36;95160.22;;;2.86;76.16
36192;BME280;22233;42.708;23.360;2023-12-20T10:32:22;95161.31;;;2.85;75.41
36192;BME280;22233;42.708;23.360;2023-12-20T10:34:48;95151.63;;;2.99;75.60
36192;BME280;22233;42.708;23.360;2023-12-20T10:37:14;95137.19;;;2.85;75.45
36192;BME280;22233;42.708;23.360;2023-12-20T10:39:42;95139.25;;;3.18;75.35
36192;BME280;22233;42.708;23.360;2023-12-20T10:42:09;95136.31;;;3.20;75.35
36192;BME280;22233;42.708;23.360;2023-12-20T10:44:36;95156.66;;;3.36;73.93
36192;BME280;22233;42.708;23.360;2023-12-20T10:47:02;95121.09;;;2.85;75.33
36192;BME280;22233;42.708;23.360;2023-12-20T10:49:30;95119.44;;;3.04;74.84
36192;BME280;22233;42.708;23.360;2023-12-20T10:51:59;95132.03;;;3.04;75.70
36192;BME280;22233;42.708;23.360;2023-12-20T10:54:25;95123.72;;;3.05;75.62
36192;BME280;22233;42.708;23.360;2023-12-20T10:56:51;95124.34;;;2.46;77.54
36192;BME280;22233;42.708;23.360;2023-12-20T10:59:19;95104.78;;;2.19;78.51
36192;BME280;22233;42.708;23.360;2023-12-20T11:01:47;95118.16;;;2.76;77.87
36192;BME280;22233;42.708;23.360;2023-12-20T11:04:30;95103.91;;;2.86;76.50
36192;BME280;22233;42.708;23.360;2023-12-20T11:07:10;95094.81;;;2.76;77.75
36192;BME280;22233;42.708;23.360;2023-12-20T11:09:40;95099.00;;;3.18;76.59
36192;BME280;22233;42.708;23.360;2023-12-20T11:12:15;95094.94;;;3.26;76.24
36192;BME280;22233;42.708;23.360;2023-12-20T11:14:49;95111.22;;;3.50;75.69
36192;BME280;22233;42.708;23.360;2023-12-20T11:17:15;95071.78;;;3.40;75.26
36192;BME280;22233;42.708;23.360;2023-12-20T11:22:26;95062.84;;;3.60;75.00
36192;BME280;22233;42.708;23.360;2023-12-20T11:24:53;95071.22;;;3.49;75.12
36192;BME280;22233;42.708;23.360;2023-12-20T11:27:21;95067.75;;;3.48;75.64
36192;BME280;22233;42.708;23.360;2023-12-20T11:29:53;95059.75;;;3.28;75.06
36192;BME280;22233;42.708;23.360;2023-12-20T11:34:59;95033.88;;;3.92;73.53
36192;BME280;22233;42.708;23.360;2023-12-20T11:37:32;95036.88;;;3.85;73.55
36192;BME280;22233;42.708;23.360;2023-12-20T11:40:06;95015.06;;;3.92;73.44
36192;BME280;22233;42.708;23.360;2023-12-20T11:42:41;95021.94;;;4.08;73.14
36192;BME280;22233;42.708;23.360;2023-12-20T11:45:18;95019.81;;;3.66;74.94
36192;BME280;22233;42.708;23.360;2023-12-20T11:47:49;95013.84;;;4.08;73.80
36192;BME280;22233;42.708;23.360;2023-12-20T11:50:17;94981.66;;;3.69;74.46
36192;BME280;22233;42.708;23.360;2023-12-20T11:52:43;95006.75;;;3.88;75.15
36192;BME280;22233;42.708;23.360;2023-12-20T11:55:09;94973.09;;;3.96;74.46
36192;BME280;22233;42.708;23.360;2023-12-20T11:57:35;94996.31;;;4.16;73.89
36192;BME280;22233;42.708;23.360;2023-12-20T12:00:02;94985.47;;;3.97;74.27
36192;BME280;22233;42.708;23.360;2023-12-20T12:02:28;94968.66;;;3.81;74.44
36192;BME280;22233;42.708;23.360;2023-12-20T12:04:53;94972.72;;;4.13;74.21
36192;BME280;22233;42.708;23.360;2023-12-20T12:07:19;94971.59;;;4.19;73.46
36192;BME280;22233;42.708;23.360;2023-12-20T12:09:45;94979.25;;;3.67;75.90
36192;BME280;22233;42.708;23.360;2023-12-20T12:12:12;94955.00;;;3.77;74.17
36192;BME280;22233;42.708;23.360;2023-12-20T12:14:38;94966.16;;;3.11;76.01
36192;BME280;22233;42.708;23.360;2023-12-20T12:17:04;94968.66;;;3.47;75.45
36192;BME280;22233;42.708;23.360;2023-12-20T12:19:30;94957.44;;;3.34;76.37
36192;BME280;22233;42.708;23.360;2023-12-20T12:24:42;94950.38;;;3.49;75.61
36192;BME280;22233;42.708;23.360;2023-12-20T12:27:08;94936.72;;;3.40;76.08
36192;BME280;22233;42.708;23.360;2023-12-20T12:29:34;94938.84;;;3.48;75.84
36192;BME280;22233;42.708;23.360;2023-12-20T12:32:00;94951.38;;;3.18;76.86
36192;BME280;22233;42.708;23.360;2023-12-20T12:34:28;94950.31;;;3.54;76.08
36192;BME280;22233;42.708;23.360;2023-12-20T12:36:54;94936.94;;;3.83;75.13
36192;BME280;22233;42.708;23.360;2023-12-20T12:39:19;94938.06;;;3.77;75.39
36192;BME280;22233;42.708;23.360;2023-12-20T12:41:45;94934.44;;;3.63;75.39
36192;BME280;22233;42.708;23.360;2023-12-20T12:44:10;94939.03;;;3.91;75.76
36192;BME280;22233;42.708;23.360;2023-12-20T12:46:36;94929.16;;;3.82;74.84
36192;BME280;22233;42.708;23.360;2023-12-20T12:49:01;94939.81;;;3.92;74.85
36192;BME280;22233;42.708;23.360;2023-12-20T12:51:27;94929.84;;;3.97;74.63
36192;BME280;22233;42.708;23.360;2023-12-20T12:53:53;94921.53;;;3.65;75.55
36192;BME280;22233;42.708;23.360;2023-12-20T12:56:18;94928.47;;;3.66;75.43
36192;BME280;22233;42.708;23.360;2023-12-20T12:58:43;94905.88;;;3.37;75.83
36192;BME280;22233;42.708;23.360;2023-12-20T13:01:09;94926.81;;;3.35;76.42